Time;durP1;ratioP1;P1;durP2;ratioP2;P2;SDS_P1;SDS_P2;PMS_P1;PMS_P2;Temp;Humidity;BMP_temperature;BMP_pressure;BME280_temperature;BME280_humidity;BME280_pressure;Samples;Min_cycle;Max_cycle;Signal;HPM_P1;HPM_P2
2022/10/21 00:09:14;;;;;;;9.52;4.32;;;13.90;99.90;;;;;;20670800;28;20041;-38
2022/10/21 00:19:15;;;;;;;8.80;3.70;;;13.90;99.90;;;;;;20690416;28;20041;-38
2022/10/21 00:29:16;;;;;;;6.78;3.83;;;13.90;99.90;;;;;;20685252;28;20061;-38
2022/10/21 00:39:17;;;;;;;7.53;3.33;;;14.10;99.90;;;;;;20689661;28;20146;-38
2022/10/21 00:49:38;;;;;;;21.85;5.32;;;14.20;99.90;;;;;;20692585;28;21814;-38
2022/10/21 00:59:44;;;;;;;9.07;4.53;;;14.20;99.90;;;;;;20686436;28;20983;-39
2022/10/21 01:09:45;;;;;;;5.90;3.40;;;14.20;99.90;;;;;;20680781;28;20050;-39
2022/10/21 01:20:23;;;;;;;5.88;2.47;;;14.30;99.90;;;;;;20683156;28;20057;-39
2022/10/21 01:30:30;;;;;;;;;;;14.40;99.90;;;;;;20694178;28;20345;-38
2022/10/21 01:40:44;;;;;;;6.55;2.20;;;14.30;99.90;;;;;;20680432;28;20928;-38
2022/10/21 01:50:52;;;;;;;4.45;2.67;;;14.40;99.90;;;;;;20686794;28;20168;-38
2022/10/21 02:00:55;;;;;;;5.65;2.63;;;14.50;99.90;;;;;;20683090;28;20151;-39
2022/10/21 02:11:00;;;;;;;6.88;3.20;;;14.70;99.90;;;;;;20691430;28;20165;-38
2022/10/21 02:21:07;;;;;;;5.32;2.13;;;14.70;99.90;;;;;;20686104;28;20098;-39
2022/10/21 02:31:17;;;;;;;6.27;3.40;;;14.70;99.90;;;;;;20686330;28;20104;-39
2022/10/21 02:41:21;;;;;;;4.85;2.92;;;14.50;99.90;;;;;;20690947;28;20161;-39
2022/10/21 02:51:22;;;;;;;6.70;3.45;;;14.30;99.90;;;;;;20690243;28;20081;-39
2022/10/21 03:01:23;;;;;;;5.05;3.17;;;14.20;99.90;;;;;;20686809;28;20104;-38
2022/10/21 03:11:24;;;;;;;7.30;3.42;;;14.10;99.90;;;;;;20684460;28;20074;-38
2022/10/21 03:21:25;;;;;;;6.95;3.83;;;14.10;99.90;;;;;;20686817;28;20496;-39
2022/10/21 03:31:26;;;;;;;6.78;3.50;;;14.00;99.90;;;;;;20677781;28;20410;-38
2022/10/21 03:41:27;;;;;;;8.40;3.80;;;13.80;99.90;;;;;;20680458;28;20363;-39
2022/10/21 03:51:28;;;;;;;5.68;3.53;;;13.70;99.90;;;;;;20684836;28;20466;-38
2022/10/21 04:01:30;;;;;;;5.90;3.15;;;13.60;99.90;;;;;;20678682;28;20056;-38
2022/10/21 04:11:31;;;;;;;7.35;2.88;;;13.60;99.90;;;;;;20682802;28;20961;-39
2022/10/21 04:21:32;;;;;;;6.85;2.78;;;13.40;99.90;;;;;;20674393;28;20478;-38
2022/10/21 04:31:33;;;;;;;5.97;3.33;;;13.40;99.90;;;;;;20686517;28;20053;-39
2022/10/21 04:41:34;;;;;;;6.60;3.45;;;13.20;99.90;;;;;;20663252;28;20207;-38
2022/10/21 04:51:35;;;;;;;7.28;3.78;;;13.20;99.90;;;;;;20700361;28;20050;-38
2022/10/21 05:01:36;;;;;;;8.27;4.90;;;13.30;99.90;;;;;;20703817;28;20041;-39
2022/10/21 05:11:37;;;;;;;14.07;3.47;;;13.30;99.90;;;;;;20712841;28;20049;-38
2022/10/21 05:21:39;;;;;;;7.95;4.85;;;13.30;99.90;;;;;;20695511;28;20058;-38
2022/10/21 05:31:40;;;;;;;6.22;3.35;;;13.30;99.90;;;;;;20705085;28;20076;-38
2022/10/21 05:41:41;;;;;;;6.85;3.83;;;13.30;99.90;;;;;;20696145;28;20053;-38
2022/10/21 05:51:43;;;;;;;4.18;2.75;;;13.30;99.90;;;;;;20693775;28;20073;-38
2022/10/21 06:01:44;;;;;;;4.40;2.58;;;13.30;99.90;;;;;;20700589;28;20131;-38
2022/10/21 06:11:45;;;;;;;5.70;2.33;;;13.30;99.90;;;;;;20683229;28;20054;-39
2022/10/21 06:21:47;;;;;;;5.70;3.35;;;13.20;99.90;;;;;;20686587;28;20037;-38
2022/10/21 06:31:48;;;;;;;10.95;4.32;;;13.20;99.90;;;;;;20695680;28;20645;-39
2022/10/21 06:41:49;;;;;;;5.97;3.13;;;13.10;99.90;;;;;;20690986;28;20108;-38
2022/10/21 06:51:50;;;;;;;7.13;3.35;;;13.20;99.90;;;;;;20694355;28;20084;-38
2022/10/21 07:01:51;;;;;;;4.20;2.50;;;13.10;99.90;;;;;;20685232;28;20049;-38
2022/10/21 07:11:52;;;;;;;5.18;3.05;;;13.10;99.90;;;;;;20693385;28;20657;-39
2022/10/21 07:21:54;;;;;;;5.78;3.05;;;13.20;99.90;;;;;;20670033;28;20065;-38
2022/10/21 07:31:56;;;;;;;5.53;1.80;;;13.30;99.90;;;;;;20687239;28;20175;-38
2022/10/21 07:41:57;;;;;;;7.10;2.58;;;13.40;99.90;;;;;;20673373;28;20481;-39
2022/10/21 07:51:58;;;;;;;7.93;3.22;;;13.50;99.90;;;;;;20679579;28;20205;-39
2022/10/21 08:01:59;;;;;;;3.72;2.38;;;13.70;99.90;;;;;;20671172;28;20042;-38
2022/10/21 08:12:00;;;;;;;3.95;2.13;;;13.60;99.90;;;;;;20627907;28;20532;-38
2022/10/21 08:22:01;;;;;;;3.60;2.03;;;13.70;99.90;;;;;;20666002;28;20422;-38
2022/10/21 08:32:03;;;;;;;6.38;2.97;;;13.70;99.90;;;;;;20676859;28;20136;-39
2022/10/21 08:42:15;;;;;;;4.05;2.53;;;13.80;99.90;;;;;;20681994;28;20053;-39
2022/10/21 08:52:21;;;;;;;4.03;2.28;;;14.00;99.90;;;;;;20661715;28;20132;-39
2022/10/21 09:02:28;;;;;;;2.50;1.45;;;14.10;99.90;;;;;;20688288;28;20828;-39
2022/10/21 09:12:36;;;;;;;4.63;2.00;;;14.20;99.90;;;;;;20687633;28;20074;-39
2022/10/21 09:22:51;;;;;;;2.88;1.27;;;14.30;99.90;;;;;;20691287;28;20082;-39
2022/10/21 09:32:58;;;;;;;2.42;1.38;;;14.60;99.90;;;;;;20680770;28;20135;-39
2022/10/21 09:43:00;;;;;;;5.40;2.53;;;14.80;99.90;;;;;;20690950;28;20510;-39
2022/10/21 09:53:04;;;;;;;2.88;1.27;;;15.10;99.90;;;;;;20708992;28;20119;-39
2022/10/21 10:03:07;;;;;;;4.45;1.83;;;15.20;99.90;;;;;;20698166;28;20742;-39
2022/10/21 10:13:17;;;;;;;4.40;2.20;;;15.30;99.90;;;;;;20698541;28;20049;-39
2022/10/21 10:23:18;;;;;;;3.00;1.40;;;15.50;99.90;;;;;;20718354;28;20854;-39
2022/10/21 10:33:31;;;;;;;3.25;1.38;;;15.70;99.90;;;;;;20726939;28;20390;-39
2022/10/21 10:43:35;;;;;;;3.58;1.85;;;15.90;99.90;;;;;;20723815;28;20881;-39
2022/10/21 10:53:37;;;;;;;2.95;1.10;;;16.20;99.90;;;;;;20731176;28;20448;-39
2022/10/21 11:03:49;;;;;;;2.33;1.23;;;16.30;99.90;;;;;;20728908;28;20037;-37
2022/10/21 11:13:52;;;;;;;1.40;0.52;;;16.60;99.90;;;;;;20744597;28;20076;-37
2022/10/21 11:24:04;;;;;;;4.07;0.80;;;17.50;99.90;;;;;;20727831;28;20045;-37
2022/10/21 11:34:24;;;;;;;2.15;0.60;;;18.50;99.90;;;;;;20725759;28;20053;-37
2022/10/21 11:44:49;;;;;;;1.30;0.77;;;18.40;99.90;;;;;;20722264;28;20810;-37
2022/10/21 11:55:31;;;;;;;1.50;0.43;;;19.10;99.90;;;;;;20731703;28;20876;-37
2022/10/21 12:05:37;;;;;;;3.22;0.63;;;19.40;99.90;;;;;;20680857;28;21901;-37
2022/10/21 12:15:43;;;;;;;2.97;1.13;;;19.50;99.90;;;;;;20720106;28;20050;-37
2022/10/21 12:26:12;;;;;;;4.25;1.60;;;18.70;99.90;;;;;;20720972;28;20045;-37
2022/10/21 12:36:21;;;;;;;8.15;1.85;;;18.20;99.90;;;;;;20716254;28;20062;-37
2022/10/21 12:46:33;;;;;;;2.65;1.42;;;18.20;99.90;;;;;;20737286;28;20741;-37
2022/10/21 12:56:45;;;;;;;2.70;1.17;;;18.20;99.90;;;;;;20725572;28;21872;-37
2022/10/21 13:06:51;;;;;;;1.50;0.73;;;18.30;99.90;;;;;;20727743;28;20041;-37
2022/10/21 13:16:52;;;;;;;2.15;0.90;;;18.50;99.90;;;;;;20736751;28;20049;-37
2022/10/21 13:26:59;;;;;;;3.92;1.15;;;19.50;99.90;;;;;;20715733;28;20465;-37
2022/10/21 13:37:00;;;;;;;2.07;0.93;;;19.70;99.90;;;;;;20736723;28;20068;-37
2022/10/21 13:47:33;;;;;;;1.98;0.63;;;21.30;99.90;;;;;;20740818;28;20057;-37
2022/10/21 13:57:35;;;;;;;0.68;0.30;;;21.50;99.90;;;;;;20729439;28;20891;-37
2022/10/21 14:07:37;;;;;;;1.80;0.63;;;22.30;99.90;;;;;;20733588;28;20107;-37
2022/10/21 14:17:42;;;;;;;1.23;0.30;;;22.30;99.90;;;;;;20745216;28;20054;-37
2022/10/21 14:27:45;;;;;;;0.80;0.28;;;22.40;99.90;;;;;;20742987;28;20042;-39
2022/10/21 14:37:49;;;;;;;2.20;0.40;;;22.00;99.90;;;;;;20727033;28;20042;-39
2022/10/21 14:47:52;;;;;;;0.95;0.60;;;21.40;99.90;;;;;;20722151;28;20041;-37
2022/10/21 14:58:03;;;;;;;0.70;0.22;;;20.70;99.90;;;;;;20732792;28;20053;-37
2022/10/21 15:08:19;;;;;;;0.75;0.35;;;20.20;99.90;;;;;;20731580;28;20574;-37
2022/10/21 15:18:35;;;;;;;0.90;0.35;;;19.80;99.90;;;;;;20746790;28;20903;-37
2022/10/21 15:28:36;;;;;;;1.15;0.65;;;19.40;99.90;;;;;;20735714;28;21712;-36
2022/10/21 15:38:43;;;;;;;1.08;0.55;;;19.10;99.90;;;;;;20716816;28;21079;-36
2022/10/21 15:48:44;;;;;;;0.73;0.30;;;18.90;99.90;;;;;;20712670;28;20858;-37
2022/10/21 15:58:45;;;;;;;1.23;0.47;;;18.70;99.90;;;;;;20724855;28;20172;-37
2022/10/21 16:08:47;;;;;;;2.22;0.73;;;18.50;99.90;;;;;;20725744;28;20053;-37
2022/10/21 16:18:49;;;;;;;2.60;0.77;;;18.30;99.90;;;;;;20707066;28;20124;-37
2022/10/21 16:28:52;;;;;;;1.30;0.38;;;18.10;99.90;;;;;;20719773;28;20065;-37
2022/10/21 16:38:53;;;;;;;0.63;0.20;;;17.80;99.90;;;;;;20716512;28;20535;-37
2022/10/21 16:48:55;;;;;;;0.88;0.40;;;17.70;99.90;;;;;;20730023;28;20488;-37
2022/10/21 16:58:56;;;;;;;1.73;0.85;;;17.50;99.90;;;;;;20728767;28;20507;-37
2022/10/21 17:08:57;;;;;;;1.83;0.85;;;17.20;99.90;;;;;;20740875;28;20108;-37
2022/10/21 17:18:58;;;;;;;2.70;0.80;;;16.90;99.90;;;;;;20751706;28;20053;-36
2022/10/21 17:28:59;;;;;;;5.07;1.33;;;16.60;99.90;;;;;;20741040;28;20311;-36
2022/10/21 17:39:00;;;;;;;0.93;0.40;;;16.60;99.90;;;;;;20727371;28;20190;-36
2022/10/21 17:49:01;;;;;;;2.53;0.70;;;16.70;99.90;;;;;;20724801;28;20396;-36
2022/10/21 17:59:02;;;;;;;1.48;0.63;;;16.70;99.90;;;;;;20725934;28;20116;-36
2022/10/21 18:09:05;;;;;;;5.05;0.77;;;16.50;99.90;;;;;;20752422;28;20058;-36
2022/10/21 18:19:06;;;;;;;1.70;0.80;;;16.50;99.90;;;;;;20724201;28;20107;-39
2022/10/21 18:29:07;;;;;;;1.85;0.85;;;16.60;99.90;;;;;;20735546;28;20117;-38
2022/10/21 18:39:10;;;;;;;1.50;0.60;;;16.60;99.90;;;;;;20734014;28;20104;-38
2022/10/21 18:49:12;;;;;;;4.35;0.55;;;16.60;99.90;;;;;;20741310;28;20111;-39
2022/10/21 18:59:13;;;;;;;1.88;0.90;;;16.60;99.90;;;;;;20715800;28;20337;-39
2022/10/21 19:09:17;;;;;;;1.48;0.50;;;16.60;99.90;;;;;;20723946;28;20045;-39
2022/10/21 19:19:18;;;;;;;1.05;0.40;;;16.60;99.90;;;;;;20714619;28;20061;-39
2022/10/21 19:29:21;;;;;;;2.65;0.88;;;16.50;99.90;;;;;;20735769;28;20064;-39
2022/10/21 19:39:22;;;;;;;1.73;0.60;;;16.40;99.90;;;;;;20724283;28;20046;-39
2022/10/21 19:49:23;;;;;;;1.13;0.70;;;16.30;99.90;;;;;;20725931;28;20060;-39
2022/10/21 19:59:24;;;;;;;1.15;0.50;;;16.20;99.90;;;;;;20730921;28;20080;-39
2022/10/21 20:09:25;;;;;;;1.63;0.70;;;16.20;99.90;;;;;;20719497;28;20049;-39
2022/10/21 20:19:26;;;;;;;1.38;0.82;;;16.10;99.90;;;;;;20737113;28;20398;-39
2022/10/21 20:29:27;;;;;;;2.35;0.70;;;16.00;99.90;;;;;;20713511;28;20042;-39
2022/10/21 20:39:28;;;;;;;2.33;0.70;;;15.90;99.90;;;;;;20722230;28;20466;-39
2022/10/21 20:49:29;;;;;;;2.40;0.63;;;15.80;99.90;;;;;;20724985;28;20042;-39
2022/10/21 20:59:30;;;;;;;2.38;1.00;;;15.70;99.90;;;;;;20704206;28;20100;-39
2022/10/21 21:09:31;;;;;;;1.30;0.52;;;15.70;99.90;;;;;;20728541;28;20077;-39
2022/10/21 21:19:32;;;;;;;1.48;0.77;;;15.70;99.90;;;;;;20719461;28;20100;-39
2022/10/21 21:29:33;;;;;;;1.25;0.50;;;15.60;99.90;;;;;;20725642;28;20054;-39
2022/10/21 21:39:34;;;;;;;1.52;0.60;;;15.60;99.90;;;;;;20727490;28;20334;-39
2022/10/21 21:49:35;;;;;;;0.90;0.55;;;15.60;99.90;;;;;;20741211;28;20050;-39
2022/10/21 21:59:36;;;;;;;1.15;0.65;;;15.60;99.90;;;;;;20734031;28;20053;-39
2022/10/21 22:09:37;;;;;;;1.33;0.65;;;15.70;99.90;;;;;;20738726;28;20037;-39
2022/10/21 22:19:38;;;;;;;1.38;0.50;;;15.60;99.90;;;;;;20723828;28;20045;-39
2022/10/21 22:29:39;;;;;;;4.63;0.70;;;15.60;99.90;;;;;;20733042;28;20049;-39
2022/10/21 22:39:40;;;;;;;1.15;0.88;;;15.50;99.90;;;;;;20725879;28;20061;-39
2022/10/21 22:49:42;;;;;;;0.93;0.40;;;15.50;99.90;;;;;;20724403;28;20053;-39
2022/10/21 22:59:44;;;;;;;2.22;0.77;;;15.40;99.90;;;;;;20737920;28;20661;-39
2022/10/21 23:09:45;;;;;;;3.35;0.98;;;15.40;99.90;;;;;;20732874;28;20057;-39
2022/10/21 23:19:46;;;;;;;2.80;1.15;;;15.30;99.90;;;;;;20737069;28;20600;-39
2022/10/21 23:29:47;;;;;;;2.85;1.17;;;15.30;99.90;;;;;;20737793;28;20441;-39
2022/10/21 23:39:48;;;;;;;2.63;0.95;;;15.30;99.90;;;;;;20725882;28;20490;-39
2022/10/21 23:49:49;;;;;;;8.32;1.10;;;15.30;99.90;;;;;;20736167;28;20541;-39
2022/10/21 23:59:50;;;;;;;2.55;0.82;;;15.30;99.90;;;;;;20724434;28;20087;-39
